Terminal Aerodrome Forecast
Issued by NWS

Home | Current Version | Previous Version | Text Only | Print | Product List | Glossary On
Versions: 1 2 3 4 5 6 7 8 9 10 11 12 13
000
FTUS42 KILM 252328
TAFCRE
TAF
KCRE 252328Z 2600/2624 14008KT P6SM FEW040
     FM260800 14006KT P6SM BKN030
      TEMPO 2609/2611 5SM BR BKN007
     FM261200 16007KT P6SM SCT025 BKN050
     FM261700 16010G18KT P6SM SCT120 SCT250=

USA.gov is the U.S. government's official web portal to all federal, state and local government web resources and services.